sensor_id;sensor_type;location;lat;lon;timestamp;pressure;altitude;pressure_sealevel;temperature;humidity
65276;BME280;51875;49.994;14.052;2023-02-26T00:00:05;97537.56;;;0.34;100.00
65276;BME280;51875;49.994;14.052;2023-02-26T00:01:32;97531.56;;;0.32;100.00
65276;BME280;51875;49.994;14.052;2023-02-26T00:02:48;97536.72;;;0.26;100.00
65276;BME280;51875;49.994;14.052;2023-02-26T00:04:05;97537.56;;;0.39;100.00
65276;BME280;51875;49.994;14.052;2023-02-26T00:05:21;97538.41;;;0.49;100.00
65276;BME280;51875;49.994;14.052;2023-02-26T00:06:38;97537.56;;;0.37;100.00
65276;BME280;51875;49.994;14.052;2023-02-26T00:08:06;97541.88;;;0.10;100.00
65276;BME280;51875;49.994;14.052;2023-02-26T00:09:22;97550.47;;;0.36;100.00
65276;BME280;51875;49.994;14.052;2023-02-26T00:10:37;97545.28;;;0.51;100.00
65276;BME280;51875;49.994;14.052;2023-02-26T00:11:53;97544.44;;;0.18;100.00
65276;BME280;51875;49.994;14.052;2023-02-26T00:13:10;97551.28;;;0.36;100.00
65276;BME280;51875;49.994;14.052;2023-02-26T00:14:26;97547.91;;;-0.05;100.00
65276;BME280;51875;49.994;14.052;2023-02-26T00:15:42;97553.03;;;0.26;100.00
65276;BME280;51875;49.994;14.052;2023-02-26T00:18:40;97555.63;;;0.08;100.00
65276;BME280;51875;49.994;14.052;2023-02-26T00:19:55;97556.47;;;0.18;100.00
65276;BME280;51875;49.994;14.052;2023-02-26T00:21:19;97556.44;;;0.35;100.00
65276;BME280;51875;49.994;14.052;2023-02-26T00:22:35;97559.88;;;0.13;100.00
65276;BME280;51875;49.994;14.052;2023-02-26T00:23:52;97561.63;;;0.05;100.00
65276;BME280;51875;49.994;14.052;2023-02-26T00:25:08;97559.88;;;0.13;100.00
65276;BME280;51875;49.994;14.052;2023-02-26T00:26:25;97566.72;;;0.35;100.00
65276;BME280;51875;49.994;14.052;2023-02-26T00:27:41;97558.16;;;0.37;100.00
65276;BME280;51875;49.994;14.052;2023-02-26T00:28:59;97560.78;;;-0.05;100.00
65276;BME280;51875;49.994;14.052;2023-02-26T00:30:15;97564.19;;;0.24;100.00
65276;BME280;51875;49.994;14.052;2023-02-26T00:31:31;97565.03;;;0.43;100.00
65276;BME280;51875;49.994;14.052;2023-02-26T00:32:47;97564.13;;;0.52;100.00
65276;BME280;51875;49.994;14.052;2023-02-26T00:34:02;97563.25;;;0.65;100.00
65276;BME280;51875;49.994;14.052;2023-02-26T00:35:18;97567.59;;;0.48;100.00
65276;BME280;51875;49.994;14.052;2023-02-26T00:40:55;97571.06;;;0.19;100.00
65276;BME280;51875;49.994;14.052;2023-02-26T00:42:12;97567.59;;;0.57;100.00
65276;BME280;51875;49.994;14.052;2023-02-26T00:43:28;97572.75;;;0.26;100.00
65276;BME280;51875;49.994;14.052;2023-02-26T00:44:44;97574.47;;;0.32;100.00
65276;BME280;51875;49.994;14.052;2023-02-26T00:48:07;97572.75;;;0.18;100.00
65276;BME280;51875;49.994;14.052;2023-02-26T00:49:52;97574.47;;;0.33;100.00
65276;BME280;51875;49.994;14.052;2023-02-26T00:51:19;97574.50;;;0.08;100.00
65276;BME280;51875;49.994;14.052;2023-02-26T00:53:02;97582.19;;;0.36;100.00
65276;BME280;51875;49.994;14.052;2023-02-26T00:54:21;97580.50;;;0.32;100.00
65276;BME280;51875;49.994;14.052;2023-02-26T00:55:37;97573.63;;;0.34;100.00
65276;BME280;51875;49.994;14.052;2023-02-26T00:56:54;97571.06;;;0.11;100.00
65276;BME280;51875;49.994;14.052;2023-02-26T00:58:10;97580.47;;;0.26;100.00
65276;BME280;51875;49.994;14.052;2023-02-26T00:59:25;97577.88;;;0.51;100.00
65276;BME280;51875;49.994;14.052;2023-02-26T01:00:41;97578.78;;;0.39;100.00
65276;BME280;51875;49.994;14.052;2023-02-26T01:01:57;97582.19;;;0.24;100.00
65276;BME280;51875;49.994;14.052;2023-02-26T01:03:12;97579.63;;;0.46;100.00
65276;BME280;51875;49.994;14.052;2023-02-26T01:04:29;97583.88;;;0.61;100.00
65276;BME280;51875;49.994;14.052;2023-02-26T01:05:44;97586.50;;;0.30;100.00
65276;BME280;51875;49.994;14.052;2023-02-26T01:07:00;97583.94;;;0.16;100.00
65276;BME280;51875;49.994;14.052;2023-02-26T01:08:31;97586.47;;;0.54;100.00
65276;BME280;51875;49.994;14.052;2023-02-26T01:09:47;97585.63;;;0.43;100.00
65276;BME280;51875;49.994;14.052;2023-02-26T01:11:03;97589.06;;;0.36;100.00
65276;BME280;51875;49.994;14.052;2023-02-26T01:12:19;97589.03;;;0.50;100.00
65276;BME280;51875;49.994;14.052;2023-02-26T01:13:35;97589.06;;;0.06;100.00
65276;BME280;51875;49.994;14.052;2023-02-26T01:14:51;97595.09;;;0.25;100.00
65276;BME280;51875;49.994;14.052;2023-02-26T01:16:11;97602.78;;;0.39;100.00
65276;BME280;51875;49.994;14.052;2023-02-26T01:17:50;97599.38;;;0.22;100.00
65276;BME280;51875;49.994;14.052;2023-02-26T01:19:16;97599.38;;;0.06;100.00
65276;BME280;51875;49.994;14.052;2023-02-26T01:20:39;97600.25;;;0.30;100.00
65276;BME280;51875;49.994;14.052;2023-02-26T01:22:32;97601.09;;;0.24;100.00
65276;BME280;51875;49.994;14.052;2023-02-26T01:23:43;97600.22;;;0.38;100.00
65276;BME280;51875;49.994;14.052;2023-02-26T01:25:38;97597.63;;;0.39;100.00
65276;BME280;51875;49.994;14.052;2023-02-26T01:26:55;97598.53;;;0.37;100.00
65276;BME280;51875;49.994;14.052;2023-02-26T01:28:11;97601.94;;;0.26;100.00
65276;BME280;51875;49.994;14.052;2023-02-26T01:29:27;97599.38;;;0.36;100.00
65276;BME280;51875;49.994;14.052;2023-02-26T01:30:42;97601.94;;;0.36;100.00
65276;BME280;51875;49.994;14.052;2023-02-26T01:32:13;97603.66;;;0.24;100.00
65276;BME280;51875;49.994;14.052;2023-02-26T01:35:46;97601.94;;;-0.09;100.00
65276;BME280;51875;49.994;14.052;2023-02-26T01:41:47;97604.50;;;0.37;100.00
65276;BME280;51875;49.994;14.052;2023-02-26T01:43:11;97606.22;;;0.38;100.00
65276;BME280;51875;49.994;14.052;2023-02-26T01:44:44;97607.97;;;0.25;100.00
65276;BME280;51875;49.994;14.052;2023-02-26T01:48:26;97612.25;;;0.00;100.00
65276;BME280;51875;49.994;14.052;2023-02-26T01:49:46;97618.25;;;0.08;100.00
65276;BME280;51875;49.994;14.052;2023-02-26T01:51:02;97614.81;;;0.12;100.00
65276;BME280;51875;49.994;14.052;2023-02-26T01:53:46;97623.38;;;0.27;100.00
65276;BME280;51875;49.994;14.052;2023-02-26T01:55:04;97623.38;;;0.08;100.00
65276;BME280;51875;49.994;14.052;2023-02-26T01:56:20;97624.25;;;-0.01;100.00
65276;BME280;51875;49.994;14.052;2023-02-26T01:57:35;97619.97;;;0.03;100.00
65276;BME280;51875;49.994;14.052;2023-02-26T01:58:51;97624.25;;;-0.01;100.00
65276;BME280;51875;49.994;14.052;2023-02-26T02:00:09;97632.84;;;0.11;100.00
65276;BME280;51875;49.994;14.052;2023-02-26T02:01:25;97624.25;;;0.31;100.00
65276;BME280;51875;49.994;14.052;2023-02-26T02:02:41;97625.13;;;0.31;100.00
65276;BME280;51875;49.994;14.052;2023-02-26T02:03:56;97631.97;;;0.01;100.00
65276;BME280;51875;49.994;14.052;2023-02-26T02:05:24;97635.34;;;-0.26;100.00
65276;BME280;51875;49.994;14.052;2023-02-26T02:06:42;97635.38;;;-0.11;100.00
65276;BME280;51875;49.994;14.052;2023-02-26T02:07:58;97629.38;;;-0.02;100.00
65276;BME280;51875;49.994;14.052;2023-02-26T02:09:14;97634.53;;;0.04;100.00
65276;BME280;51875;49.994;14.052;2023-02-26T02:10:31;97633.69;;;-0.03;100.00
65276;BME280;51875;49.994;14.052;2023-02-26T02:15:13;97635.41;;;0.09;100.00
65276;BME280;51875;49.994;14.052;2023-02-26T02:17:06;97638.84;;;0.02;100.00
65276;BME280;51875;49.994;14.052;2023-02-26T02:18:33;97639.69;;;0.01;100.00
65276;BME280;51875;49.994;14.052;2023-02-26T02:27:46;97650.84;;;0.03;100.00
65276;BME280;51875;49.994;14.052;2023-02-26T02:32:22;97659.44;;;0.35;100.00
65276;BME280;51875;49.994;14.052;2023-02-26T02:33:46;97652.59;;;0.17;100.00
65276;BME280;51875;49.994;14.052;2023-02-26T02:36:32;97659.44;;;0.25;100.00
65276;BME280;51875;49.994;14.052;2023-02-26T02:37:57;97655.16;;;0.24;100.00
65276;BME280;51875;49.994;14.052;2023-02-26T02:39:21;97661.94;;;-0.17;100.00
65276;BME280;51875;49.994;14.052;2023-02-26T02:40:56;97668.81;;;-0.20;100.00
65276;BME280;51875;49.994;14.052;2023-02-26T02:43:30;97667.94;;;-0.18;100.00
65276;BME280;51875;49.994;14.052;2023-02-26T02:44:55;97665.41;;;-0.05;100.00
65276;BME280;51875;49.994;14.052;2023-02-26T02:46:17;97668.00;;;0.13;100.00
65276;BME280;51875;49.994;14.052;2023-02-26T02:47:38;97663.75;;;0.16;100.00
65276;BME280;51875;49.994;14.052;2023-02-26T02:48:57;97662.00;;;0.21;100.00
65276;BME280;51875;49.994;14.052;2023-02-26T02:50:34;97667.13;;;-0.01;100.00
65276;BME280;51875;49.994;14.052;2023-02-26T02:51:54;97668.88;;;0.03;100.00
65276;BME280;51875;49.994;14.052;2023-02-26T02:53:21;97674.00;;;0.05;100.00
65276;BME280;51875;49.994;14.052;2023-02-26T02:54:43;97673.09;;;-0.18;100.00
65276;BME280;51875;49.994;14.052;2023-02-26T02:56:10;97671.44;;;0.06;100.00
65276;BME280;51875;49.994;14.052;2023-02-26T02:57:39;97677.44;;;0.07;100.00
65276;BME280;51875;49.994;14.052;2023-02-26T03:00:36;97675.75;;;0.24;100.00
65276;BME280;51875;49.994;14.052;2023-02-26T03:03:43;97676.44;;;-0.44;100.00
65276;BME280;51875;49.994;14.052;2023-02-26T03:05:01;97675.66;;;-0.29;100.00
65276;BME280;51875;49.994;14.052;2023-02-26T03:06:17;97681.66;;;-0.16;100.00
65276;BME280;51875;49.994;14.052;2023-02-26T03:07:43;97686.88;;;-0.02;100.00
65276;BME280;51875;49.994;14.052;2023-02-26T03:09:01;97680.00;;;0.04;100.00
65276;BME280;51875;49.994;14.052;2023-02-26T03:10:18;97684.25;;;-0.17;100.00
65276;BME280;51875;49.994;14.052;2023-02-26T03:11:35;97688.59;;;0.01;100.00
65276;BME280;51875;49.994;14.052;2023-02-26T03:12:51;97691.16;;;0.10;100.00
65276;BME280;51875;49.994;14.052;2023-02-26T03:14:07;97689.44;;;-0.02;100.00
65276;BME280;51875;49.994;14.052;2023-02-26T03:15:36;97697.19;;;0.19;100.00
65276;BME280;51875;49.994;14.052;2023-02-26T03:17:05;97697.16;;;0.12;100.00
65276;BME280;51875;49.994;14.052;2023-02-26T03:18:57;97704.91;;;0.11;100.00
65276;BME280;51875;49.994;14.052;2023-02-26T03:20:25;97705.78;;;0.28;100.00
65276;BME280;51875;49.994;14.052;2023-02-26T03:23:22;97703.16;;;0.01;100.00
65276;BME280;51875;49.994;14.052;2023-02-26T03:24:56;97709.19;;;0.12;100.00
65276;BME280;51875;49.994;14.052;2023-02-26T03:26:18;97710.03;;;0.03;100.00
65276;BME280;51875;49.994;14.052;2023-02-26T03:27:46;97708.34;;;0.16;100.00
65276;BME280;51875;49.994;14.052;2023-02-26T03:32:52;97720.38;;;0.25;100.00
65276;BME280;51875;49.994;14.052;2023-02-26T03:36:00;97728.94;;;0.35;100.00
65276;BME280;51875;49.994;14.052;2023-02-26T03:37:25;97725.53;;;0.37;100.00
65276;BME280;51875;49.994;14.052;2023-02-26T03:40:04;97731.50;;;0.08;100.00
65276;BME280;51875;49.994;14.052;2023-02-26T03:41:29;97733.25;;;0.22;100.00
65276;BME280;51875;49.994;14.052;2023-02-26T03:42:54;97738.41;;;0.26;100.00
65276;BME280;51875;49.994;14.052;2023-02-26T03:44:57;97737.47;;;0.06;100.00
65276;BME280;51875;49.994;14.052;2023-02-26T03:46:18;97740.09;;;0.20;100.00
65276;BME280;51875;49.994;14.052;2023-02-26T03:47:39;97740.97;;;0.25;100.00
65276;BME280;51875;49.994;14.052;2023-02-26T03:48:59;97745.25;;;0.17;100.00
65276;BME280;51875;49.994;14.052;2023-02-26T03:50:23;97743.53;;;0.22;100.00
65276;BME280;51875;49.994;14.052;2023-02-26T03:51:40;97748.66;;;0.00;100.00
65276;BME280;51875;49.994;14.052;2023-02-26T03:52:58;97748.66;;;0.09;100.00
65276;BME280;51875;49.994;14.052;2023-02-26T03:54:45;97747.84;;;0.27;100.00
65276;BME280;51875;49.994;14.052;2023-02-26T03:56:14;97756.38;;;0.20;100.00
65276;BME280;51875;49.994;14.052;2023-02-26T03:57:30;97766.66;;;0.05;100.00
65276;BME280;51875;49.994;14.052;2023-02-26T03:58:46;97760.56;;;-0.21;100.00
65276;BME280;51875;49.994;14.052;2023-02-26T04:00:04;97756.38;;;0.09;100.00
65276;BME280;51875;49.994;14.052;2023-02-26T04:01:23;97764.09;;;0.06;100.00
65276;BME280;51875;49.994;14.052;2023-02-26T04:02:49;97759.84;;;0.25;100.00
65276;BME280;51875;49.994;14.052;2023-02-26T04:04:14;97764.91;;;-0.01;100.00
65276;BME280;51875;49.994;14.052;2023-02-26T04:05:39;97765.00;;;0.24;100.00
65276;BME280;51875;49.994;14.052;2023-02-26T04:06:56;97763.25;;;0.09;100.00
65276;BME280;51875;49.994;14.052;2023-02-26T04:08:12;97766.59;;;-0.08;100.00
65276;BME280;51875;49.994;14.052;2023-02-26T04:09:28;97765.81;;;0.01;100.00
65276;BME280;51875;49.994;14.052;2023-02-26T04:10:50;97764.03;;;-0.11;100.00
65276;BME280;51875;49.994;14.052;2023-02-26T04:12:06;97772.63;;;-0.04;100.00
65276;BME280;51875;49.994;14.052;2023-02-26T04:13:22;97772.69;;;0.11;100.00
65276;BME280;51875;49.994;14.052;2023-02-26T04:14:37;97770.06;;;-0.04;100.00
65276;BME280;51875;49.994;14.052;2023-02-26T04:15:53;97775.31;;;0.22;100.00
65276;BME280;51875;49.994;14.052;2023-02-26T04:17:09;97775.25;;;0.13;100.00
65276;BME280;51875;49.994;14.052;2023-02-26T04:18:25;97774.34;;;-0.02;100.00
65276;BME280;51875;49.994;14.052;2023-02-26T04:19:40;97783.72;;;-0.21;100.00
65276;BME280;51875;49.994;14.052;2023-02-26T04:20:56;97785.59;;;0.18;100.00
65276;BME280;51875;49.994;14.052;2023-02-26T04:22:12;97782.13;;;0.12;100.00
65276;BME280;51875;49.994;14.052;2023-02-26T04:23:28;97782.81;;;-0.32;100.00
65276;BME280;51875;49.994;14.052;2023-02-26T04:24:43;97785.53;;;0.08;100.00
65276;BME280;51875;49.994;14.052;2023-02-26T04:25:59;97782.97;;;0.10;100.00
65276;BME280;51875;49.994;14.052;2023-02-26T04:27:15;97786.38;;;0.01;100.00
65276;BME280;51875;49.994;14.052;2023-02-26T04:28:30;97784.59;;;-0.20;100.00
65276;BME280;51875;49.994;14.052;2023-02-26T04:29:46;97788.91;;;-0.08;100.00
65276;BME280;51875;49.994;14.052;2023-02-26T04:31:03;97789.84;;;0.14;100.00
65276;BME280;51875;49.994;14.052;2023-02-26T04:32:19;97784.59;;;-0.16;100.00
65276;BME280;51875;49.994;14.052;2023-02-26T04:33:35;97788.13;;;0.19;100.00
65276;BME280;51875;49.994;14.052;2023-02-26T04:34:51;97788.97;;;0.13;100.00
65276;BME280;51875;49.994;14.052;2023-02-26T04:36:07;97794.13;;;0.04;100.00
65276;BME280;51875;49.994;14.052;2023-02-26T04:37:23;97793.25;;;0.02;100.00
65276;BME280;51875;49.994;14.052;2023-02-26T04:38:39;97795.81;;;0.04;100.00
65276;BME280;51875;49.994;14.052;2023-02-26T04:39:54;97796.69;;;0.01;100.00
65276;BME280;51875;49.994;14.052;2023-02-26T04:41:10;97797.41;;;-0.26;100.00
65276;BME280;51875;49.994;14.052;2023-02-26T04:42:25;97800.00;;;-0.19;100.00
65276;BME280;51875;49.994;14.052;2023-02-26T04:43:41;97801.75;;;-0.19;100.00
65276;BME280;51875;49.994;14.052;2023-02-26T04:44:56;97803.56;;;0.02;100.00
65276;BME280;51875;49.994;14.052;2023-02-26T04:46:12;97796.66;;;0.03;100.00
65276;BME280;51875;49.994;14.052;2023-02-26T04:47:28;97801.84;;;0.13;100.00
65276;BME280;51875;49.994;14.052;2023-02-26T04:48:43;97802.72;;;0.08;100.00
65276;BME280;51875;49.994;14.052;2023-02-26T04:49:59;97802.59;;;-0.17;100.00
65276;BME280;51875;49.994;14.052;2023-02-26T04:51:15;97802.69;;;0.02;100.00
65276;BME280;51875;49.994;14.052;2023-02-26T04:52:30;97806.97;;;-0.04;100.00
65276;BME280;51875;49.994;14.052;2023-02-26T04:53:46;97803.59;;;0.18;100.00
65276;BME280;51875;49.994;14.052;2023-02-26T04:55:02;97803.53;;;0.07;100.00
65276;BME280;51875;49.994;14.052;2023-02-26T04:56:18;97810.44;;;0.12;100.00
65276;BME280;51875;49.994;14.052;2023-02-26T04:57:34;97813.00;;;0.08;100.00
65276;BME280;51875;49.994;14.052;2023-02-26T04:58:49;97822.44;;;0.04;100.00
65276;BME280;51875;49.994;14.052;2023-02-26T05:00:05;97818.19;;;0.25;100.00
65276;BME280;51875;49.994;14.052;2023-02-26T05:01:24;97820.78;;;0.33;100.00
65276;BME280;51875;49.994;14.052;2023-02-26T05:02:39;97819.06;;;0.21;100.00
65276;BME280;51875;49.994;14.052;2023-02-26T05:03:55;97822.47;;;0.20;100.00
65276;BME280;51875;49.994;14.052;2023-02-26T05:05:11;97824.16;;;0.11;100.00
65276;BME280;51875;49.994;14.052;2023-02-26T05:06:26;97825.91;;;0.22;100.00
65276;BME280;51875;49.994;14.052;2023-02-26T05:07:42;97829.34;;;0.15;100.00
65276;BME280;51875;49.994;14.052;2023-02-26T05:08:58;97830.19;;;0.17;100.00
65276;BME280;51875;49.994;14.052;2023-02-26T05:10:13;97835.41;;;0.37;100.00
65276;BME280;51875;49.994;14.052;2023-02-26T05:11:29;97830.25;;;0.35;100.00
65276;BME280;51875;49.994;14.052;2023-02-26T05:12:44;97835.34;;;0.15;100.00
65276;BME280;51875;49.994;14.052;2023-02-26T05:14:00;97837.94;;;0.23;100.00
65276;BME280;51875;49.994;14.052;2023-02-26T05:15:16;97835.25;;;-0.07;100.00
65276;BME280;51875;49.994;14.052;2023-02-26T05:16:32;97841.38;;;0.25;100.00
65276;BME280;51875;49.994;14.052;2023-02-26T05:17:47;97836.25;;;0.26;100.00
65276;BME280;51875;49.994;14.052;2023-02-26T05:19:03;97837.06;;;0.19;100.00
65276;BME280;51875;49.994;14.052;2023-02-26T05:20:20;97841.44;;;0.45;100.00
65276;BME280;51875;49.994;14.052;2023-02-26T05:21:35;97840.56;;;0.35;100.00
65276;BME280;51875;49.994;14.052;2023-02-26T05:22:51;97842.19;;;0.19;100.00
65276;BME280;51875;49.994;14.052;2023-02-26T05:24:07;97849.94;;;0.27;100.00
65276;BME280;51875;49.994;14.052;2023-02-26T05:25:23;97843.88;;;0.09;100.00
65276;BME280;51875;49.994;14.052;2023-02-26T05:26:39;97847.34;;;0.10;100.00
65276;BME280;51875;49.994;14.052;2023-02-26T05:27:54;97843.94;;;0.16;100.00
65276;BME280;51875;49.994;14.052;2023-02-26T05:29:10;97843.88;;;0.00;100.00
65276;BME280;51875;49.994;14.052;2023-02-26T05:30:25;97844.00;;;0.39;100.00
65276;BME280;51875;49.994;14.052;2023-02-26T05:31:41;97850.78;;;0.12;100.00
65276;BME280;51875;49.994;14.052;2023-02-26T05:32:57;97850.59;;;-0.21;100.00
65276;BME280;51875;49.994;14.052;2023-02-26T05:34:13;97853.31;;;0.07;100.00
65276;BME280;51875;49.994;14.052;2023-02-26T05:35:28;97854.19;;;0.06;100.00
65276;BME280;51875;49.994;14.052;2023-02-26T05:36:44;97851.59;;;0.09;100.00
65276;BME280;51875;49.994;14.052;2023-02-26T05:38:00;97855.03;;;0.11;100.00
65276;BME280;51875;49.994;14.052;2023-02-26T05:39:15;97853.28;;;0.03;100.00
65276;BME280;51875;49.994;14.052;2023-02-26T05:40:31;97861.84;;;-0.03;100.00
65276;BME280;51875;49.994;14.052;2023-02-26T05:41:46;97863.56;;;-0.04;100.00
65276;BME280;51875;49.994;14.052;2023-02-26T05:43:02;97866.16;;;-0.01;100.00
65276;BME280;51875;49.994;14.052;2023-02-26T05:44:18;97876.44;;;-0.01;100.00
65276;BME280;51875;49.994;14.052;2023-02-26T05:45:33;97877.38;;;0.11;100.00
65276;BME280;51875;49.994;14.052;2023-02-26T05:46:50;97885.03;;;-0.02;100.00
65276;BME280;51875;49.994;14.052;2023-02-26T05:48:05;97877.09;;;-0.34;100.00
65276;BME280;51875;49.994;14.052;2023-02-26T05:49:21;97883.31;;;0.01;100.00
65276;BME280;51875;49.994;14.052;2023-02-26T05:50:37;97882.53;;;0.14;100.00
65276;BME280;51875;49.994;14.052;2023-02-26T05:51:53;97886.00;;;0.22;100.00
65276;BME280;51875;49.994;14.052;2023-02-26T05:53:08;97885.97;;;0.16;100.00
65276;BME280;51875;49.994;14.052;2023-02-26T05:54:24;97885.13;;;0.22;100.00
65276;BME280;51875;49.994;14.052;2023-02-26T05:55:40;97896.28;;;0.18;100.00
65276;BME280;51875;49.994;14.052;2023-02-26T05:56:56;97893.72;;;0.22;100.00
65276;BME280;51875;49.994;14.052;2023-02-26T05:58:11;97894.63;;;0.32;100.00
65276;BME280;51875;49.994;14.052;2023-02-26T05:59:27;97892.03;;;0.29;100.00
65276;BME280;51875;49.994;14.052;2023-02-26T06:00:43;97898.75;;;-0.01;100.00
65276;BME280;51875;49.994;14.052;2023-02-26T06:01:59;97907.38;;;0.04;100.00
65276;BME280;51875;49.994;14.052;2023-02-26T06:03:15;97910.03;;;0.24;100.00
65276;BME280;51875;49.994;14.052;2023-02-26T06:04:30;97911.63;;;-0.03;100.00
65276;BME280;51875;49.994;14.052;2023-02-26T06:05:46;97915.88;;;-0.03;100.00
65276;BME280;51875;49.994;14.052;2023-02-26T06:07:01;97918.50;;;0.03;100.00
65276;BME280;51875;49.994;14.052;2023-02-26T06:08:17;97919.41;;;0.13;100.00
65276;BME280;51875;49.994;14.052;2023-02-26T06:09:33;97926.25;;;0.06;100.00
65276;BME280;51875;49.994;14.052;2023-02-26T06:10:49;97928.88;;;0.17;100.00
65276;BME280;51875;49.994;14.052;2023-02-26T06:12:06;97930.69;;;0.32;100.00
65276;BME280;51875;49.994;14.052;2023-02-26T06:13:22;97927.94;;;0.06;100.00
65276;BME280;51875;49.994;14.052;2023-02-26T06:14:37;97930.59;;;0.18;100.00
65276;BME280;51875;49.994;14.052;2023-02-26T06:15:53;97934.09;;;0.28;100.00
65276;BME280;51875;49.994;14.052;2023-02-26T06:17:09;97937.47;;;0.15;100.00
65276;BME280;51875;49.994;14.052;2023-02-26T06:18:24;97939.25;;;0.28;100.00
65276;BME280;51875;49.994;14.052;2023-02-26T06:19:40;97944.31;;;0.16;100.00
65276;BME280;51875;49.994;14.052;2023-02-26T06:20:56;97947.69;;;0.02;100.00
65276;BME280;51875;49.994;14.052;2023-02-26T06:22:11;97950.31;;;0.16;100.00
65276;BME280;51875;49.994;14.052;2023-02-26T06:23:27;97946.94;;;0.23;100.00
65276;BME280;51875;49.994;14.052;2023-02-26T06:24:43;97947.00;;;0.37;100.00
65276;BME280;51875;49.994;14.052;2023-02-26T06:25:58;97949.59;;;0.36;100.00
65276;BME280;51875;49.994;14.052;2023-02-26T06:27:14;97951.38;;;0.49;100.00
65276;BME280;51875;49.994;14.052;2023-02-26T06:28:30;97951.28;;;0.32;100.00
65276;BME280;51875;49.994;14.052;2023-02-26T06:29:46;97951.22;;;0.26;100.00
65276;BME280;51875;49.994;14.052;2023-02-26T06:31:01;97958.94;;;0.23;100.00
65276;BME280;51875;49.994;14.052;2023-02-26T06:32:17;97961.34;;;-0.05;100.00
65276;BME280;51875;49.994;14.052;2023-02-26T06:33:33;97964.94;;;0.19;100.00
65276;BME280;51875;49.994;14.052;2023-02-26T06:34:48;97970.16;;;0.37;100.00
65276;BME280;51875;49.994;14.052;2023-02-26T06:36:04;97966.72;;;0.32;100.00
65276;BME280;51875;49.994;14.052;2023-02-26T06:37:20;97975.22;;;0.17;100.00
65276;BME280;51875;49.994;14.052;2023-02-26T06:38:36;97971.94;;;0.45;100.00
65276;BME280;51875;49.994;14.052;2023-02-26T06:39:51;97971.06;;;0.38;100.00
65276;BME280;51875;49.994;14.052;2023-02-26T06:41:07;97971.19;;;0.70;100.00
65276;BME280;51875;49.994;14.052;2023-02-26T06:42:23;97975.34;;;0.39;100.00
65276;BME280;51875;49.994;14.052;2023-02-26T06:43:39;97983.72;;;0.07;100.00
65276;BME280;51875;49.994;14.052;2023-02-26T06:44:55;97980.94;;;-0.26;100.00
65276;BME280;51875;49.994;14.052;2023-02-26T06:46:11;97983.78;;;0.15;100.00
65276;BME280;51875;49.994;14.052;2023-02-26T06:47:27;97981.25;;;0.24;100.00
65276;BME280;51875;49.994;14.052;2023-02-26T06:48:42;97989.06;;;0.39;100.00
65276;BME280;51875;49.994;14.052;2023-02-26T06:49:58;97993.16;;;0.03;100.00
65276;BME280;51875;49.994;14.052;2023-02-26T06:51:13;97992.41;;;0.23;100.00
65276;BME280;51875;49.994;14.052;2023-02-26T06:52:29;97997.63;;;0.35;100.00
65276;BME280;51875;49.994;14.052;2023-02-26T06:53:45;98001.16;;;0.51;100.00
65276;BME280;51875;49.994;14.052;2023-02-26T06:55:02;97997.78;;;0.63;100.00
65276;BME280;51875;49.994;14.052;2023-02-26T06:56:17;98006.22;;;0.34;100.00
65276;BME280;51875;49.994;14.052;2023-02-26T06:57:33;98014.84;;;0.47;100.00
65276;BME280;51875;49.994;14.052;2023-02-26T06:58:48;98013.25;;;0.68;100.00
65276;BME280;51875;49.994;14.052;2023-02-26T07:00:05;98020.06;;;0.53;100.00
65276;BME280;51875;49.994;14.052;2023-02-26T07:01:21;98014.03;;;0.53;100.00
65276;BME280;51875;49.994;14.052;2023-02-26T07:02:38;98017.50;;;0.53;100.00
65276;BME280;51875;49.994;14.052;2023-02-26T07:03:54;98015.75;;;0.48;100.00
65276;BME280;51875;49.994;14.052;2023-02-26T07:05:09;98017.41;;;0.41;100.00
65276;BME280;51875;49.994;14.052;2023-02-26T07:06:25;98015.78;;;0.59;100.00
65276;BME280;51875;49.994;14.052;2023-02-26T07:07:41;98029.22;;;0.12;100.00
65276;BME280;51875;49.994;14.052;2023-02-26T07:08:57;98030.19;;;0.22;100.00
65276;BME280;51875;49.994;14.052;2023-02-26T07:10:12;98035.22;;;0.08;100.00
65276;BME280;51875;49.994;14.052;2023-02-26T07:11:28;98032.84;;;0.38;100.00
65276;BME280;51875;49.994;14.052;2023-02-26T07:12:44;98026.06;;;0.52;100.00
65276;BME280;51875;49.994;14.052;2023-02-26T07:13:59;98034.44;;;0.19;100.00
65276;BME280;51875;49.994;14.052;2023-02-26T07:15:15;98037.19;;;0.45;100.00
65276;BME280;51875;49.994;14.052;2023-02-26T07:16:31;98036.25;;;0.29;100.00
65276;BME280;51875;49.994;14.052;2023-02-26T07:17:47;98043.94;;;0.24;100.00
65276;BME280;51875;49.994;14.052;2023-02-26T07:19:02;98043.06;;;0.25;100.00
65276;BME280;51875;49.994;14.052;2023-02-26T07:20:18;98043.09;;;0.30;100.00
65276;BME280;51875;49.994;14.052;2023-02-26T07:21:34;98049.25;;;0.54;100.00
65276;BME280;51875;49.994;14.052;2023-02-26T07:22:49;98046.81;;;0.82;100.00
65276;BME280;51875;49.994;14.052;2023-02-26T07:24:05;98051.06;;;0.70;100.00
65276;BME280;51875;49.994;14.052;2023-02-26T07:25:21;98051.81;;;0.51;100.00
65276;BME280;51875;49.994;14.052;2023-02-26T07:26:37;98054.28;;;0.32;100.00
65276;BME280;51875;49.994;14.052;2023-02-26T07:27:53;98064.75;;;0.57;100.00
65276;BME280;51875;49.994;14.052;2023-02-26T07:29:10;98056.25;;;0.74;100.00
65276;BME280;51875;49.994;14.052;2023-02-26T07:30:26;98070.66;;;0.42;100.00
65276;BME280;51875;49.994;14.052;2023-02-26T07:31:42;98066.53;;;0.74;100.00
65276;BME280;51875;49.994;14.052;2023-02-26T07:32:57;98073.56;;;1.03;100.00
65276;BME280;51875;49.994;14.052;2023-02-26T07:34:13;98065.03;;;1.22;100.00
65276;BME280;51875;49.994;14.052;2023-02-26T07:35:29;98071.69;;;0.74;100.00
65276;BME280;51875;49.994;14.052;2023-02-26T07:36:44;98075.81;;;0.48;100.00